Time;durP1;ratioP1;P1;durP2;ratioP2;P2;SDS_P1;SDS_P2;PMS_P1;PMS_P2;Temp;Humidity;BMP_temperature;BMP_pressure;BME280_temperature;BME280_humidity;BME280_pressure;Samples;Min_cycle;Max_cycle;Signal;HPM_P1;HPM_P2
2022/07/01 00:01:51;;;;;;;7.57;1.90;;;17.90;99.90;;;;;;6167560;22;20016;-91
2022/07/01 00:04:17;;;;;;;5.57;1.95;;;17.50;99.90;;;;;;6235522;22;20055;-92
2022/07/01 00:06:45;;;;;;;6.03;1.88;;;17.30;99.90;;;;;;6206617;22;20008;-91
2022/07/01 00:09:11;;;;;;;7.38;1.70;;;17.60;99.90;;;;;;6232446;22;20016;-93
2022/07/01 00:11:38;;;;;;;6.80;1.90;;;17.80;99.90;;;;;;6181110;22;20012;-91
2022/07/01 00:14:04;;;;;;;4.43;2.00;;;17.80;99.90;;;;;;6231006;22;20069;-92
2022/07/01 00:16:30;;;;;;;4.05;1.60;;;18.00;99.90;;;;;;6182837;22;20414;-91
2022/07/01 00:19:03;;;;;;;4.43;1.52;;;17.70;99.90;;;;;;6190034;22;20451;-93
2022/07/01 00:21:31;;;;;;;3.83;1.42;;;17.90;99.90;;;;;;6229384;22;20046;-92
2022/07/01 00:23:57;;;;;;;5.28;2.30;;;17.80;99.90;;;;;;6204229;22;20358;-92
2022/07/01 00:26:24;;;;;;;2.20;1.45;;;17.80;99.90;;;;;;6192572;22;20023;-91
2022/07/01 00:28:53;;;;;;;1.95;1.48;;;17.60;99.90;;;;;;6236083;22;20019;-93
2022/07/01 00:31:19;;;;;;;2.75;1.30;;;17.60;99.90;;;;;;6209388;22;20022;-93
2022/07/01 00:33:45;;;;;;;5.80;1.70;;;17.60;99.90;;;;;;6188197;22;20015;-92
2022/07/01 00:36:11;;;;;;;3.85;1.60;;;17.90;99.90;;;;;;6208053;22;20012;-92
2022/07/01 00:38:40;;;;;;;3.55;1.60;;;17.70;99.90;;;;;;6177143;22;20090;-90
2022/07/01 00:41:06;;;;;;;4.20;1.80;;;18.00;99.90;;;;;;6204424;22;20054;-92
2022/07/01 00:43:38;;;;;;;3.42;1.50;;;17.80;99.90;;;;;;6177780;22;20019;-89
2022/07/01 00:46:06;;;;;;;4.47;1.58;;;18.20;99.90;;;;;;6201399;22;20026;-93
2022/07/01 00:48:36;;;;;;;4.22;1.50;;;17.70;99.90;;;;;;6202236;22;20020;-93
2022/07/01 00:51:02;;;;;;;3.70;1.77;;;17.80;99.90;;;;;;6216884;22;20452;-92
2022/07/01 00:53:29;;;;;;;3.72;1.90;;;17.90;99.90;;;;;;6210358;22;20015;-90
2022/07/01 00:55:56;;;;;;;3.35;2.53;;;18.00;99.90;;;;;;6207894;22;20012;-91
2022/07/01 00:58:22;;;;;;;2.95;2.40;;;17.70;99.90;;;;;;6199222;22;20022;-90
2022/07/01 01:00:51;;;;;;;5.25;2.78;;;17.70;99.90;;;;;;6231750;22;20004;-91
2022/07/01 01:03:18;;;;;;;4.22;2.53;;;18.00;99.90;;;;;;6187182;23;20047;-93
2022/07/01 01:05:44;;;;;;;5.47;3.00;;;18.00;99.90;;;;;;6173168;23;20018;-92
2022/07/01 01:08:11;;;;;;;4.63;2.67;;;18.10;99.90;;;;;;6176452;23;20067;-91
2022/07/01 01:10:38;;;;;;;5.45;3.10;;;17.90;99.90;;;;;;6202665;23;20023;-90
2022/07/01 01:13:04;;;;;;;4.65;2.70;;;17.60;99.90;;;;;;6206663;23;20012;-92
2022/07/01 01:15:31;;;;;;;5.15;2.88;;;17.70;99.90;;;;;;6183003;23;20012;-92
2022/07/01 01:17:59;;;;;;;4.70;2.67;;;18.00;99.90;;;;;;6173095;23;20052;-90
2022/07/01 01:20:29;;;;;;;5.18;2.20;;;18.10;99.90;;;;;;6196374;23;20354;-94
2022/07/01 01:22:54;;;;;;;5.38;2.10;;;18.10;99.90;;;;;;6180499;23;20015;-92
2022/07/01 01:25:21;;;;;;;3.63;1.73;;;17.60;99.90;;;;;;6177455;23;20043;-92
2022/07/01 01:27:47;;;;;;;5.47;2.10;;;18.00;99.90;;;;;;6203299;23;20103;-91
2022/07/01 01:30:13;;;;;;;3.83;1.63;;;18.10;99.90;;;;;;6177987;23;20008;-90
2022/07/01 01:32:42;;;;;;;2.67;1.58;;;17.60;99.90;;;;;;6175358;23;20384;-92
2022/07/01 01:35:09;;;;;;;1.90;1.27;;;17.50;99.90;;;;;;6175147;23;20012;-93
2022/07/01 01:37:41;;;;;;;4.95;2.22;;;17.60;99.90;;;;;;6180092;23;20016;-92
2022/07/01 01:40:08;;;;;;;2.55;1.33;;;18.40;99.90;;;;;;6200359;23;20016;-93
2022/07/01 01:42:37;;;;;;;3.17;1.40;;;17.70;99.90;;;;;;6177240;23;20022;-92
2022/07/01 01:45:06;;;;;;;2.67;1.50;;;17.10;99.90;;;;;;6176089;23;20020;-94
2022/07/01 01:47:32;;;;;;;2.33;1.30;;;17.60;99.90;;;;;;6195192;23;20324;-91
2022/07/01 01:49:58;;;;;;;4.18;1.35;;;17.80;99.90;;;;;;6171054;23;20012;-90
2022/07/01 01:52:28;;;;;;;2.20;1.35;;;17.20;99.90;;;;;;6177362;23;20012;-92
2022/07/01 01:54:54;;;;;;;3.53;1.30;;;17.30;99.90;;;;;;6150815;23;20008;-93
2022/07/01 01:57:20;;;;;;;2.28;1.35;;;17.70;99.90;;;;;;6171500;23;20009;-92
2022/07/01 01:59:51;;;;;;;2.53;1.30;;;17.10;99.90;;;;;;6172343;23;20023;-93
2022/07/01 02:02:18;;;;;;;2.75;1.63;;;17.70;99.90;;;;;;6171562;23;20362;-92
2022/07/01 02:04:43;;;;;;;3.85;1.27;;;17.10;99.90;;;;;;6197882;23;20020;-93
2022/07/01 02:07:09;;;;;;;2.70;1.30;;;17.40;99.90;;;;;;6204075;23;20350;-93
2022/07/01 02:09:35;;;;;;;3.45;1.60;;;17.60;99.90;;;;;;6203622;23;20023;-93
2022/07/01 02:12:01;;;;;;;3.28;1.98;;;17.00;99.90;;;;;;6212289;23;20035;-93
2022/07/01 02:14:27;;;;;;;2.60;1.90;;;17.30;99.90;;;;;;6205434;23;20014;-93
2022/07/01 02:16:56;;;;;;;3.38;1.85;;;17.40;99.90;;;;;;6204483;23;20107;-92
2022/07/01 02:19:22;;;;;;;3.78;2.00;;;17.60;99.90;;;;;;6201072;23;20015;-93
2022/07/01 02:21:50;;;;;;;4.40;2.00;;;17.00;99.90;;;;;;6200369;23;20054;-94
2022/07/01 02:24:19;;;;;;;2.88;1.80;;;17.60;99.90;;;;;;6202265;23;20090;-93
2022/07/01 02:26:56;;;;;;;4.20;1.80;;;16.80;99.90;;;;;;6211146;23;20524;-92
2022/07/01 02:29:22;;;;;;;2.67;1.60;;;17.40;99.90;;;;;;6205058;23;20024;-92
2022/07/01 02:31:48;;;;;;;3.58;1.75;;;17.50;99.90;;;;;;6210402;23;20012;-92
2022/07/01 02:34:14;;;;;;;2.83;1.67;;;17.40;99.90;;;;;;6202073;23;20016;-93
2022/07/01 02:36:55;;;;;;;3.03;1.52;;;17.40;99.90;;;;;;6233340;23;20093;-93
2022/07/01 02:39:22;;;;;;;3.75;1.70;;;17.40;99.90;;;;;;6204868;23;20031;-92
2022/07/01 02:44:55;;;;;;;3.70;1.58;;;16.60;99.90;;;;;;6240403;23;20020;-94
2022/07/01 02:47:21;;;;;;;3.35;1.85;;;16.80;99.90;;;;;;6201821;23;20012;-94
2022/07/01 02:49:58;;;;;;;2.30;1.60;;;17.30;99.90;;;;;;6172422;23;20013;-93
2022/07/01 02:53:17;;;;;;;2.13;1.80;;;16.60;99.90;;;;;;6127622;23;20103;-94
2022/07/01 02:55:42;;;;;;;2.25;1.75;;;16.60;99.90;;;;;;6167302;23;20020;-94
2022/07/01 02:58:08;;;;;;;4.82;2.10;;;16.60;99.90;;;;;;6087217;23;20468;-93
2022/07/01 03:00:34;;;;;;;2.78;1.60;;;16.50;99.90;;;;;;6086999;23;20017;-94
2022/07/01 03:03:00;;;;;;;2.47;2.28;;;16.50;99.90;;;;;;6160927;23;20052;-93
2022/07/01 03:05:27;;;;;;;4.07;2.53;;;16.50;99.90;;;;;;6064992;23;20025;-94
2022/07/01 03:07:53;;;;;;;3.53;2.42;;;16.90;99.90;;;;;;6088819;23;20100;-92
2022/07/01 03:10:20;;;;;;;2.22;1.90;;;17.00;99.90;;;;;;6112413;23;20013;-94
2022/07/01 03:12:46;;;;;;;4.45;2.50;;;16.90;99.90;;;;;;6114270;23;20012;-94
2022/07/01 03:15:16;;;;;;;6.32;2.33;;;16.60;99.90;;;;;;6120612;23;20064;-92
2022/07/01 03:17:47;;;;;;;2.38;2.17;;;16.80;99.90;;;;;;6121657;23;20051;-93
2022/07/01 03:20:15;;;;;;;2.75;2.45;;;16.40;99.90;;;;;;6179895;23;20016;-93
2022/07/01 03:22:43;;;;;;;3.58;2.65;;;16.20;99.90;;;;;;6204288;23;20012;-93
2022/07/01 03:25:10;;;;;;;6.07;2.92;;;16.80;99.90;;;;;;6203628;23;20012;-92
2022/07/01 03:27:36;;;;;;;3.30;2.40;;;16.30;99.90;;;;;;6200879;23;20016;-92
2022/07/01 03:30:05;;;;;;;5.47;2.58;;;16.70;99.90;;;;;;6198667;23;20086;-94
2022/07/01 03:32:31;;;;;;;5.43;2.78;;;16.10;99.90;;;;;;6202908;23;20008;-93
2022/07/01 03:34:57;;;;;;;4.53;2.50;;;16.20;99.90;;;;;;6204337;23;20440;-94
2022/07/01 03:37:23;;;;;;;4.40;3.15;;;16.40;99.90;;;;;;6199898;23;20014;-93
2022/07/01 03:43:12;;;;;;;5.38;2.90;;;16.00;99.90;;;;;;6252522;23;20066;-94
2022/07/01 03:45:53;;;;;;;3.42;2.85;;;16.00;99.90;;;;;;6206369;23;20044;-93
2022/07/01 03:48:19;;;;;;;5.15;2.70;;;16.20;99.90;;;;;;6204934;23;20020;-92
2022/07/01 03:50:45;;;;;;;4.25;2.80;;;16.50;99.90;;;;;;6205507;23;20073;-92
2022/07/01 03:55:56;;;;;;;4.80;3.20;;;16.50;99.90;;;;;;6223434;23;20031;-93
2022/07/01 03:58:22;;;;;;;5.40;3.10;;;16.00;99.90;;;;;;6208331;23;20446;-93
2022/07/01 04:05:38;;;;;;;;;;;;;;;;;;;;;
2022/07/01 04:08:11;;;;;;;4.15;3.08;;;16.40;99.90;;;;;;6183793;23;20107;-92
2022/07/01 04:10:56;;;;;;;4.88;3.22;;;16.60;99.90;;;;;;6203776;23;20012;-93
2022/07/01 04:13:23;;;;;;;5.32;3.28;;;16.00;99.90;;;;;;6177771;23;20111;-93
2022/07/01 04:15:52;;;;;;;5.75;3.35;;;16.30;99.90;;;;;;6204756;23;20012;-93
2022/07/01 04:18:18;;;;;;;3.47;2.88;;;16.50;99.90;;;;;;6179766;23;20016;-94
2022/07/01 04:22:32;;;;;;;5.72;3.45;;;16.60;99.90;;;;;;6176919;23;20013;-93
2022/07/01 04:23:30;;;;;;;4.18;3.00;;;16.10;99.90;;;;;;6203592;23;20020;-93
2022/07/01 04:26:00;;;;;;;6.13;3.25;;;16.50;99.90;;;;;;6177435;23;20069;-93
2022/07/01 04:28:26;;;;;;;4.80;3.25;;;16.00;99.90;;;;;;6179180;23;20016;-93
2022/07/01 04:30:52;;;;;;;5.45;3.95;;;16.00;99.90;;;;;;6176290;23;20119;-93
2022/07/01 04:33:18;;;;;;;5.07;3.40;;;16.00;99.90;;;;;;6184489;23;20012;-93
2022/07/01 04:35:51;;;;;;;6.32;3.85;;;16.20;99.90;;;;;;6184161;23;20067;-95
2022/07/01 04:38:17;;;;;;;4.25;3.45;;;16.40;99.90;;;;;;6180321;23;20016;-94
2022/07/01 04:41:58;;;;;;;5.68;3.47;;;16.20;99.90;;;;;;6186602;23;20023;-95
2022/07/01 04:43:31;;;;;;;5.03;3.38;;;16.00;99.90;;;;;;6210626;23;20020;-94
2022/07/01 04:46:00;;;;;;;7.13;3.70;;;16.50;99.90;;;;;;6182387;23;20012;-95
2022/07/01 04:48:27;;;;;;;5.43;3.60;;;16.10;99.90;;;;;;6184243;23;20012;-93
2022/07/01 04:50:53;;;;;;;5.97;4.07;;;16.20;99.90;;;;;;6178859;23;20070;-94
2022/07/01 04:53:41;;;;;;;6.90;4.65;;;15.90;99.90;;;;;;6182758;23;20019;-96
2022/07/01 04:56:11;;;;;;;6.40;4.30;;;15.90;99.90;;;;;;6213254;23;20027;-95
2022/07/01 05:01:35;;;;;;;5.28;4.38;;;16.00;99.90;;;;;;6218222;22;20020;-94
2022/07/01 05:04:09;;;;;;;5.43;4.72;;;16.00;99.90;;;;;;6211592;23;20012;-95
2022/07/01 05:06:42;;;;;;;7.25;4.53;;;15.90;99.90;;;;;;6216789;23;20023;-95
2022/07/01 05:09:08;;;;;;;9.90;5.85;;;16.40;99.90;;;;;;6206960;23;20055;-94
2022/07/01 05:11:34;;;;;;;6.35;5.57;;;16.40;99.90;;;;;;6173983;23;20393;-93
2022/07/01 05:14:00;;;;;;;6.68;4.97;;;15.90;99.90;;;;;;6200054;23;20015;-95
2022/07/01 05:16:26;;;;;;;9.32;5.70;;;16.00;99.90;;;;;;6176738;23;20018;-94
2022/07/01 05:24:30;;;;;;;8.70;6.95;;;16.10;99.90;;;;;;6203309;23;20027;-94
2022/07/01 05:27:32;;;;;;;10.13;8.55;;;16.50;99.90;;;;;;6208513;23;20051;-92
2022/07/01 05:30:07;;;;;;;10.25;8.07;;;16.00;99.90;;;;;;6202885;23;20016;-93
2022/07/01 05:32:42;;;;;;;10.48;8.18;;;16.50;99.90;;;;;;6185956;23;20510;-94
2022/07/01 05:35:17;;;;;;;14.07;9.68;;;16.10;99.90;;;;;;6186752;23;20385;-94
2022/07/01 05:37:43;;;;;;;12.75;10.77;;;16.40;99.90;;;;;;6179659;23;20014;-94
2022/07/01 05:40:12;;;;;;;18.92;11.35;;;16.20;99.90;;;;;;6153702;23;20019;-94
2022/07/01 05:42:38;;;;;;;17.30;11.35;;;16.50;99.90;;;;;;6177882;23;20012;-93
2022/07/01 05:45:05;;;;;;;14.73;10.93;;;16.40;99.90;;;;;;6154643;23;20091;-94
2022/07/01 05:47:31;;;;;;;16.13;12.77;;;16.40;99.90;;;;;;6154238;23;20016;-94
2022/07/01 05:49:57;;;;;;;17.25;11.95;;;16.60;99.90;;;;;;6177157;23;20008;-94
2022/07/01 05:52:23;;;;;;;18.92;12.07;;;16.30;99.90;;;;;;6151591;23;20100;-94
2022/07/01 05:54:58;;;;;;;19.40;13.57;;;16.80;99.90;;;;;;6175038;23;20050;-95
2022/07/01 05:57:24;;;;;;;18.30;13.93;;;16.70;99.90;;;;;;6173758;23;20019;-95
2022/07/01 05:59:53;;;;;;;20.40;13.82;;;16.40;99.90;;;;;;6151814;23;20008;-94
2022/07/01 06:02:32;;;;;;;19.17;13.93;;;16.40;99.90;;;;;;6179890;23;20012;-94
2022/07/01 06:05:24;;;;;;;19.55;13.55;;;16.00;99.90;;;;;;6202551;23;20008;-94
2022/07/01 06:07:53;;;;;;;21.05;14.32;;;16.60;99.90;;;;;;6176707;23;20020;-94
2022/07/01 06:10:19;;;;;;;19.52;14.48;;;16.90;99.90;;;;;;6201400;23;20012;-95
2022/07/01 06:12:49;;;;;;;20.75;15.05;;;16.60;99.90;;;;;;6209427;23;20054;-95
2022/07/01 06:15:18;;;;;;;20.13;14.70;;;16.80;99.90;;;;;;6202615;23;20016;-96
2022/07/01 06:17:44;;;;;;;23.08;16.77;;;17.00;99.90;;;;;;6201089;23;20453;-95
2022/07/01 06:23:58;;;;;;;19.92;16.00;;;16.50;99.90;;;;;;6254471;23;20149;-95
2022/07/01 06:26:58;;;;;;;26.88;17.30;;;16.80;99.90;;;;;;6229936;23;20464;-96
2022/07/01 06:29:48;;;;;;;22.38;17.88;;;16.90;99.90;;;;;;6209629;23;20019;-96
2022/07/01 06:36:16;;;;;;;27.45;18.73;;;17.00;99.90;;;;;;6199817;23;20032;-95
2022/07/01 06:38:48;;;;;;;22.45;16.13;;;16.90;99.90;;;;;;6121254;23;20017;-96
2022/07/01 06:41:29;;;;;;;21.23;16.15;;;16.60;99.90;;;;;;6097136;23;20013;-96
2022/07/01 06:43:57;;;;;;;20.55;15.35;;;16.20;99.90;;;;;;6165678;23;20088;-96
2022/07/01 06:46:23;;;;;;;19.10;14.98;;;17.10;99.90;;;;;;6117349;23;20016;-95
2022/07/01 06:48:49;;;;;;;19.00;14.50;;;16.80;99.90;;;;;;6141702;23;20029;-95
2022/07/01 06:51:36;;;;;;;21.42;14.35;;;17.20;99.90;;;;;;6145018;23;20032;-96
2022/07/01 06:54:02;;;;;;;20.60;14.57;;;17.20;99.90;;;;;;6166847;23;20044;-95
2022/07/01 06:56:29;;;;;;;18.00;14.38;;;17.10;99.90;;;;;;6141201;23;20047;-95
2022/07/01 06:58:55;;;;;;;18.38;14.63;;;17.30;99.90;;;;;;6115238;23;20068;-94
2022/07/01 07:01:28;;;;;;;19.63;14.40;;;17.20;99.90;;;;;;6144978;23;20052;-95
2022/07/01 07:04:01;;;;;;;19.70;14.98;;;17.30;99.90;;;;;;6169873;23;20013;-95
2022/07/01 07:06:28;;;;;;;17.33;14.25;;;17.20;99.90;;;;;;6172731;23;20541;-95
2022/07/01 07:16:05;;;;;;;22.23;14.73;;;17.40;99.90;;;;;;6252161;22;20018;-96
2022/07/01 07:18:40;;;;;;;16.50;14.13;;;17.10;99.90;;;;;;6200364;23;20099;-96
2022/07/01 07:21:06;;;;;;;17.25;12.85;;;17.30;99.90;;;;;;6205099;23;20020;-96
2022/07/01 07:23:42;;;;;;;17.10;13.65;;;17.40;99.90;;;;;;6154226;23;20016;-94
2022/07/01 07:26:24;;;;;;;18.75;14.93;;;17.00;99.90;;;;;;6165042;23;20493;-94
2022/07/01 07:29:07;;;;;;;22.27;15.73;;;17.80;99.90;;;;;;6177257;23;20019;-96
2022/07/01 07:32:42;;;;;;;19.10;15.00;;;16.80;99.90;;;;;;6146016;23;20463;-95
2022/07/01 07:35:09;;;;;;;19.83;15.48;;;17.00;99.90;;;;;;6111822;23;20014;-96
2022/07/01 07:37:39;;;;;;;20.35;16.40;;;17.00;99.90;;;;;;6170360;23;20019;-95
2022/07/01 07:40:17;;;;;;;23.20;17.15;;;17.10;99.90;;;;;;6200985;23;20016;-95
2022/07/01 07:43:13;;;;;;;20.95;17.75;;;17.10;99.90;;;;;;6211774;23;20069;-95
2022/07/01 07:46:23;;;;;;;20.02;16.83;;;17.60;99.90;;;;;;6206325;23;20043;-95
2022/07/01 07:48:54;;;;;;;18.40;15.30;;;17.30;99.90;;;;;;6195590;23;20012;-96
2022/07/01 07:51:24;;;;;;;21.38;17.63;;;17.50;99.90;;;;;;6206109;23;20000;-96
2022/07/01 08:00:49;;;;;;;23.52;17.27;;;17.40;99.90;;;;;;6137643;23;20017;-95
2022/07/01 08:03:28;;;;;;;18.77;15.40;;;17.60;99.90;;;;;;6066328;23;20021;-95
2022/07/01 08:05:54;;;;;;;18.05;15.48;;;17.30;99.90;;;;;;6099248;23;20014;-95
2022/07/01 08:08:27;;;;;;;21.42;17.08;;;17.60;99.90;;;;;;6112644;23;20008;-94
2022/07/01 08:11:17;;;;;;;16.95;15.20;;;17.30;99.90;;;;;;6116041;23;20429;-96
2022/07/01 08:14:04;;;;;;;18.33;16.42;;;17.50;99.90;;;;;;6143864;22;20007;-96
2022/07/01 08:16:36;;;;;;;18.17;15.30;;;17.40;99.90;;;;;;6236604;22;20019;-93
2022/07/01 08:19:25;;;;;;;16.48;14.25;;;17.50;99.90;;;;;;6186493;22;20041;-96
2022/07/01 08:22:48;;;;;;;16.75;14.82;;;17.00;99.90;;;;;;6219214;22;20094;-95
2022/07/01 08:29:37;;;;;;;18.90;14.43;;;17.70;99.90;;;;;;6287302;22;20023;-96
2022/07/01 08:36:08;;;;;;;14.77;12.65;;;17.50;99.90;;;;;;6173254;23;20052;-96
2022/07/01 08:38:38;;;;;;;14.98;13.60;;;17.70;99.90;;;;;;6114261;23;20045;-96
2022/07/01 08:41:12;;;;;;;16.13;12.95;;;17.90;99.90;;;;;;6066131;23;20025;-93
2022/07/01 08:44:31;;;;;;;14.52;12.48;;;18.10;99.90;;;;;;6166716;22;20046;-93
2022/07/01 08:46:57;;;;;;;15.18;13.65;;;17.70;99.90;;;;;;6232927;22;20016;-92
2022/07/01 08:49:40;;;;;;;14.82;13.32;;;18.10;99.90;;;;;;6184576;22;20023;-93
2022/07/01 08:52:50;;;;;;;14.60;12.55;;;18.00;99.90;;;;;;6238811;22;20012;-93
2022/07/01 08:55:18;;;;;;;13.80;12.40;;;18.10;99.90;;;;;;6230400;22;20388;-94
2022/07/01 08:58:21;;;;;;;12.52;11.18;;;18.90;99.90;;;;;;6235592;22;20038;-94
2022/07/01 09:01:25;;;;;;;10.40;9.20;;;18.80;99.90;;;;;;6255149;22;20067;-93
2022/07/01 09:03:56;;;;;;;13.68;10.80;;;18.70;99.90;;;;;;6228215;22;20342;-94
2022/07/01 09:11:12;;;;;;;8.77;7.35;;;18.90;99.90;;;;;;6255954;23;20018;-96
2022/07/01 09:13:42;;;;;;;9.52;8.63;;;18.70;99.90;;;;;;6201014;23;20070;-95
2022/07/01 09:23:18;;;;;;;7.72;5.65;;;19.60;99.90;;;;;;6259716;23;20014;-95
2022/07/01 09:25:47;;;;;;;7.80;5.90;;;20.20;99.90;;;;;;6207276;23;20012;-94
2022/07/01 09:35:07;;;;;;;6.20;3.75;;;20.10;99.90;;;;;;6174378;23;20035;-93
2022/07/01 09:37:34;;;;;;;7.20;4.07;;;20.10;99.90;;;;;;6179624;23;20012;-94
2022/07/01 09:40:18;;;;;;;7.50;5.00;;;20.10;99.90;;;;;;6203194;23;20054;-93
2022/07/01 09:42:47;;;;;;;9.30;4.40;;;20.10;99.90;;;;;;6208125;23;20020;-94
2022/07/01 09:45:14;;;;;;;7.85;5.10;;;20.20;99.90;;;;;;6183555;23;20091;-93
2022/07/01 09:54:30;;;;;;;6.65;3.58;;;19.80;99.90;;;;;;6236954;23;20131;-94
2022/07/01 09:57:09;;;;;;;4.70;3.58;;;20.20;99.90;;;;;;6185575;23;20047;-94
2022/07/01 09:59:44;;;;;;;6.57;3.40;;;20.10;99.90;;;;;;6188191;23;20019;-95
2022/07/01 10:02:29;;;;;;;5.22;3.55;;;20.00;99.90;;;;;;6184429;23;20086;-95
2022/07/01 10:05:37;;;;;;;8.18;3.40;;;19.60;99.90;;;;;;6208602;23;20012;-94
2022/07/01 10:08:11;;;;;;;4.97;3.10;;;19.60;99.90;;;;;;6225583;23;20396;-94
2022/07/01 10:11:14;;;;;;;4.10;3.03;;;19.70;99.90;;;;;;6209882;23;20012;-93
2022/07/01 10:13:41;;;;;;;4.25;2.35;;;20.10;99.90;;;;;;6212951;23;20012;-93
2022/07/01 10:16:17;;;;;;;4.88;2.83;;;19.80;99.90;;;;;;6202173;23;20012;-93
2022/07/01 10:18:44;;;;;;;4.30;2.63;;;20.50;99.90;;;;;;6214320;23;20016;-96
2022/07/01 10:21:54;;;;;;;3.15;2.30;;;21.00;99.90;;;;;;6185659;23;20016;-93
2022/07/01 10:24:21;;;;;;;3.15;2.50;;;21.00;99.90;;;;;;6210875;23;20000;-94
2022/07/01 10:26:54;;;;;;;3.75;2.45;;;20.60;99.90;;;;;;6187124;23;20039;-94
2022/07/01 10:29:31;;;;;;;4.60;3.45;;;20.50;99.90;;;;;;6158798;23;20012;-94
2022/07/01 10:32:28;;;;;;;5.75;3.00;;;20.40;99.90;;;;;;6219046;23;20046;-94
2022/07/01 10:35:11;;;;;;;3.88;3.00;;;20.80;99.90;;;;;;6185193;23;20031;-94
2022/07/01 10:38:10;;;;;;;5.45;3.10;;;21.50;99.90;;;;;;6181772;23;20012;-93
2022/07/01 10:40:40;;;;;;;5.00;2.78;;;20.50;99.90;;;;;;6190277;23;20343;-95
2022/07/01 10:43:48;;;;;;;4.97;3.22;;;21.10;99.90;;;;;;6200333;23;20016;-90
2022/07/01 10:46:44;;;;;;;4.68;2.97;;;20.70;99.90;;;;;;6054490;23;20014;-94
2022/07/01 10:49:41;;;;;;;5.25;3.10;;;21.00;99.90;;;;;;6052209;23;20014;-93
2022/07/01 10:52:09;;;;;;;5.30;3.03;;;21.60;99.90;;;;;;6051095;23;20121;-92
2022/07/01 10:54:39;;;;;;;6.07;2.88;;;21.00;99.90;;;;;;6075125;23;20179;-93
2022/07/01 10:57:29;;;;;;;5.45;2.90;;;21.20;99.90;;;;;;6095003;23;20015;-92
2022/07/01 11:00:10;;;;;;;4.78;2.97;;;21.40;99.90;;;;;;6197961;23;20523;-91
2022/07/01 11:02:41;;;;;;;3.97;2.80;;;21.40;99.90;;;;;;6203547;23;20023;-93
2022/07/01 11:05:18;;;;;;;4.57;2.90;;;22.40;99.90;;;;;;6193745;23;20013;-92
2022/07/01 11:08:12;;;;;;;4.13;2.90;;;21.60;99.90;;;;;;6232092;22;20003;-95
2022/07/01 11:11:12;;;;;;;;;;;;;;;;;;;;;
2022/07/01 11:13:52;;;;;;;4.45;3.53;;;21.50;99.90;;;;;;6268464;22;20016;-94
2022/07/01 11:16:39;;;;;;;7.32;3.92;;;20.80;99.90;;;;;;6237192;22;20019;-96
2022/07/01 11:19:08;;;;;;;7.75;3.72;;;20.40;99.90;;;;;;6234736;22;20023;-95
2022/07/01 11:21:35;;;;;;;7.20;4.07;;;20.40;99.90;;;;;;6209701;22;20065;-94
2022/07/01 11:24:26;;;;;;;7.75;3.83;;;21.00;99.90;;;;;;6234301;22;20093;-94
2022/07/01 11:27:25;;;;;;;;;;;;;;;;;;;;;
2022/07/01 11:30:17;;;;;;;2.83;1.13;;;19.40;99.90;;;;;;6240299;22;20015;-93
2022/07/01 11:32:49;;;;;;;2.15;1.00;;;19.30;99.90;;;;;;6240352;22;20015;-93
2022/07/01 11:41:06;;;;;;;3.50;1.00;;;18.60;99.90;;;;;;6262783;22;20016;-94
2022/07/01 11:43:38;;;;;;;3.55;1.00;;;18.90;99.90;;;;;;6233662;22;20012;-93
2022/07/01 11:46:10;;;;;;;2.80;0.90;;;18.90;99.90;;;;;;6233461;22;20018;-95
2022/07/01 11:48:51;;;;;;;2.67;1.10;;;18.70;99.90;;;;;;6206205;22;20011;-94
2022/07/01 11:51:26;;;;;;;2.53;1.02;;;18.60;99.90;;;;;;6232825;22;20012;-95
2022/07/01 11:53:54;;;;;;;3.28;1.00;;;18.40;99.90;;;;;;6236913;22;20012;-95
2022/07/01 11:56:39;;;;;;;2.50;1.02;;;18.50;99.90;;;;;;6210268;22;20018;-93
2022/07/01 11:59:07;;;;;;;2.50;0.95;;;18.90;99.90;;;;;;6238644;22;20345;-91
2022/07/01 12:01:39;;;;;;;3.40;1.23;;;19.70;99.90;;;;;;6204482;22;20314;-94
2022/07/01 12:04:08;;;;;;;3.03;1.02;;;19.90;99.90;;;;;;6232936;22;20016;-93
2022/07/01 12:06:42;;;;;;;3.03;1.30;;;19.80;99.90;;;;;;6234120;22;20012;-94
2022/07/01 12:09:20;;;;;;;3.38;1.10;;;19.90;99.90;;;;;;6206406;22;20016;-94
2022/07/01 12:11:56;;;;;;;3.28;1.20;;;19.90;99.90;;;;;;6229994;22;20015;-92
2022/07/01 12:14:31;;;;;;;4.38;1.33;;;19.80;99.90;;;;;;6207450;22;20011;-91
2022/07/01 12:17:06;;;;;;;4.43;2.13;;;19.60;99.90;;;;;;6231092;22;20041;-94
2022/07/01 12:19:51;;;;;;;3.47;1.05;;;19.10;99.90;;;;;;6207187;22;20062;-93
2022/07/01 12:23:09;;;;;;;4.00;1.13;;;19.40;99.90;;;;;;6203748;22;20062;-95
2022/07/01 12:25:39;;;;;;;3.70;1.20;;;19.60;99.90;;;;;;6232432;22;20015;-94
2022/07/01 12:28:30;;;;;;;3.17;1.23;;;20.40;99.90;;;;;;6204784;22;20015;-93
2022/07/01 12:31:14;;;;;;;4.40;1.20;;;21.30;99.90;;;;;;6227408;22;20022;-93
2022/07/01 12:34:20;;;;;;;4.13;1.45;;;21.00;99.90;;;;;;6203320;22;20012;-96
2022/07/01 12:36:50;;;;;;;1.90;1.00;;;21.50;99.90;;;;;;6229820;22;20019;-94
2022/07/01 12:39:19;;;;;;;3.97;1.20;;;21.00;99.90;;;;;;6203446;22;20062;-94
2022/07/01 12:41:50;;;;;;;2.85;1.25;;;20.90;99.90;;;;;;6202521;22;20023;-93
2022/07/01 12:44:54;;;;;;;5.25;1.40;;;20.90;99.90;;;;;;6228718;22;20434;-93
2022/07/01 12:47:49;;;;;;;3.47;1.20;;;20.80;99.90;;;;;;6229426;22;20011;-93
2022/07/01 12:50:36;;;;;;;3.95;1.20;;;21.30;99.90;;;;;;6230626;22;20019;-92
2022/07/01 12:53:39;;;;;;;;;;;;;;;;;;;;;
2022/07/01 12:56:37;;;;;;;3.47;0.95;;;22.10;99.90;;;;;;6232526;22;20023;-93
2022/07/01 12:59:05;;;;;;;4.22;0.93;;;21.60;99.90;;;;;;6230306;22;20050;-91
2022/07/01 13:01:31;;;;;;;1.58;0.90;;;22.00;99.90;;;;;;6229844;22;20011;-94
2022/07/01 13:04:26;;;;;;;3.42;1.00;;;22.50;99.90;;;;;;6205161;22;20011;-92
2022/07/01 13:06:53;;;;;;;1.75;0.80;;;22.80;99.90;;;;;;6204620;22;20375;-94
2022/07/01 13:09:26;;;;;;;3.10;0.73;;;22.90;99.90;;;;;;6203120;22;20019;-94
2022/07/01 13:15:27;;;;;;;2.00;0.70;;;23.00;99.90;;;;;;6162970;23;20021;-91
2022/07/01 13:17:54;;;;;;;1.42;0.70;;;23.10;99.90;;;;;;6114703;23;20017;-94
2022/07/01 13:20:20;;;;;;;1.13;0.60;;;23.20;99.90;;;;;;6208449;22;20012;-93
2022/07/01 13:22:56;;;;;;;3.55;1.00;;;23.30;99.90;;;;;;6228209;22;20022;-92
2022/07/01 13:25:31;;;;;;;5.60;0.90;;;23.60;99.90;;;;;;6206642;22;20049;-91
2022/07/01 13:28:17;;;;;;;7.05;0.90;;;23.80;99.90;;;;;;6184424;22;20022;-92
2022/07/01 13:30:52;;;;;;;3.30;1.42;;;22.90;99.90;;;;;;6232969;22;20086;-94
2022/07/01 13:33:28;;;;;;;3.13;0.63;;;23.10;99.90;;;;;;6210566;22;20055;-93
2022/07/01 13:36:11;;;;;;;1.00;0.70;;;23.30;99.90;;;;;;6218364;22;20011;-94
2022/07/01 13:38:38;;;;;;;4.20;0.80;;;23.70;99.90;;;;;;6208959;22;20016;-91
2022/07/01 13:41:04;;;;;;;2.92;0.90;;;23.50;99.90;;;;;;6232277;22;20076;-93
2022/07/01 13:43:45;;;;;;;2.58;0.93;;;23.40;99.90;;;;;;6205582;22;20157;-90
2022/07/01 13:46:11;;;;;;;1.45;0.70;;;22.50;99.90;;;;;;6214818;22;19999;-88
2022/07/01 13:52:17;;;;;;;2.17;0.90;;;22.70;99.90;;;;;;6189002;22;20062;-93
2022/07/01 13:54:51;;;;;;;2.65;0.77;;;23.20;99.90;;;;;;6227862;22;20345;-91
2022/07/01 13:58:18;;;;;;;7.43;1.38;;;23.10;99.90;;;;;;6180746;22;20333;-92
2022/07/01 14:00:45;;;;;;;2.70;1.05;;;22.10;99.90;;;;;;6109112;23;20020;-91
2022/07/01 14:06:39;;;;;;;4.88;1.20;;;21.70;99.90;;;;;;6163980;23;20067;-93
2022/07/01 14:09:19;;;;;;;1.67;0.82;;;21.30;99.90;;;;;;6090134;23;20351;-91
2022/07/01 14:11:48;;;;;;;2.35;1.00;;;21.00;99.90;;;;;;6135668;23;20068;-87
2022/07/01 14:14:14;;;;;;;3.05;1.00;;;21.20;99.90;;;;;;6087745;23;20075;-90
2022/07/01 14:17:04;;;;;;;2.22;0.90;;;21.00;99.90;;;;;;6088268;23;20009;-94
2022/07/01 14:19:30;;;;;;;4.15;0.80;;;21.20;99.90;;;;;;6145152;22;20515;-94
2022/07/01 14:22:06;;;;;;;1.80;0.82;;;21.10;99.90;;;;;;6199505;22;20012;-92
2022/07/01 14:24:41;;;;;;;2.25;0.80;;;21.40;99.90;;;;;;6223343;22;20012;-90
2022/07/01 14:27:12;;;;;;;4.55;1.00;;;21.20;99.90;;;;;;6199607;22;20012;-88
2022/07/01 14:30:21;;;;;;;5.03;1.23;;;21.50;99.90;;;;;;6224846;22;20012;-91
2022/07/01 14:33:02;;;;;;;3.05;0.90;;;21.80;99.90;;;;;;6205267;22;20072;-93
2022/07/01 14:35:31;;;;;;;4.80;0.93;;;21.30;99.90;;;;;;6200060;22;20046;-86
2022/07/01 14:38:01;;;;;;;3.13;1.17;;;21.70;99.90;;;;;;6198220;22;20047;-88
2022/07/01 14:41:11;;;;;;;3.65;1.25;;;21.90;99.90;;;;;;6200070;22;20015;-92
2022/07/01 14:44:25;;;;;;;4.82;1.10;;;22.00;99.90;;;;;;6214599;22;20460;-92
2022/07/01 14:46:51;;;;;;;1.58;0.80;;;22.20;99.90;;;;;;6201887;22;20103;-87
2022/07/01 14:50:36;;;;;;;1.85;0.90;;;22.70;99.90;;;;;;6202767;22;20054;-92
2022/07/01 14:53:23;;;;;;;1.95;0.80;;;22.10;99.90;;;;;;6110000;23;20014;-91
2022/07/01 14:56:01;;;;;;;;;;;;;;;;;;;;;
2022/07/01 14:58:50;;;;;;;5.93;1.20;;;22.00;99.90;;;;;;6107692;23;20017;-93
2022/07/01 15:02:03;;;;;;;2.08;0.80;;;22.00;99.90;;;;;;6082642;23;20025;-93
2022/07/01 15:05:20;;;;;;;3.20;1.20;;;21.50;99.90;;;;;;6221283;22;20023;-96